Time;durP1;ratioP1;P1;durP2;ratioP2;P2;SDS_P1;SDS_P2;PMS_P1;PMS_P2;Temp;Humidity;BMP_temperature;BMP_pressure;BME280_temperature;BME280_humidity;BME280_pressure;Samples;Min_cycle;Max_cycle;Signal;HPM_P1;HPM_P2
2022/03/16 00:01:37;;;;;;;;;;;;;;;;;;4979158;28;19914;-28
2022/03/16 00:04:04;;;;;;;;;;;;;;;;;;4978689;28;20004;-29
2022/03/16 00:06:30;;;;;;;;;;;;;;;;;;4979015;28;19910;-29
2022/03/16 00:08:57;;;;;;;;;;;;;;;;;;4978750;28;20345;-33
2022/03/16 00:11:24;;;;;;;;;;;;;;;;;;4978879;28;19918;-29
2022/03/16 00:13:50;;;;;;;;;;;;;;;;;;4978562;28;19996;-30
2022/03/16 00:16:17;;;;;;;;;;;;;;;;;;4978769;28;19964;-29
2022/03/16 00:18:43;;;;;;;;;;;;;;;;;;4978578;28;20002;-29
2022/03/16 00:21:09;;;;;;;;;;;;;;;;;;4978715;28;19918;-32
2022/03/16 00:23:35;;;;;;;;;;;;;;;;;;4978529;28;19980;-28
2022/03/16 00:26:03;;;;;;;;;;;;;;;;;;4978457;28;20246;-27
2022/03/16 00:28:30;;;;;;;;;;;;;;;;;;4978661;28;19973;-29
2022/03/16 00:30:56;;;;;;;;;;;;;;;;;;4978185;28;19914;-27
2022/03/16 00:33:22;;;;;;;;;;;;;;;;;;4978237;28;20024;-27
2022/03/16 00:35:49;;;;;;;;;;;;;;;;;;4984147;28;19928;-27
2022/03/16 00:38:16;;;;;;;;;;;;;;;;;;4980545;28;19913;-30
2022/03/16 00:40:43;;;;;;;;;;;;;;;;;;4997504;28;19914;-28
2022/03/16 00:43:11;;;;;;;;;;;;;;;;;;4997726;28;20342;-28
2022/03/16 00:45:38;;;;;;;;;;;;;;;;;;4997564;28;19976;-31
2022/03/16 00:48:04;;;;;;;;;;;;;;;;;;4997514;28;19945;-30
2022/03/16 00:50:32;;;;;;;;;;;;;;;;;;4997664;28;19964;-28
2022/03/16 00:52:58;;;;;;;;;;;;;;;;;;4997249;28;20312;-33
2022/03/16 00:55:25;;;;;;;;;;;;;;;;;;4996734;28;20333;-27
2022/03/16 00:57:54;;;;;;;;;;;;;;;;;;4997320;28;19910;-31
2022/03/16 01:00:20;;;;;;;;;;;;;;;;;;4997553;28;19925;-29
2022/03/16 01:02:47;;;;;;;;;;;;;;;;;;4997192;28;19917;-27
2022/03/16 01:05:15;;;;;;;;;;;;;;;;;;4997414;28;19924;-27
2022/03/16 01:07:41;;;;;;;;;;;;;;;;;;4997316;28;19914;-34
2022/03/16 01:10:07;;;;;;;;;;;;;;;;;;4997363;28;20277;-31
2022/03/16 01:12:33;;;;;;;;;;;;;;;;;;4996926;28;20484;-27
2022/03/16 01:15:00;;;;;;;;;;;;;;;;;;4997150;28;20357;-28
2022/03/16 01:17:26;;;;;;;;;;;;;;;;;;4996854;28;19917;-28
2022/03/16 01:19:52;;;;;;;;;;;;;;;;;;4997166;28;19914;-30
2022/03/16 01:22:19;;;;;;;;;;;;;;;;;;4996807;28;19965;-27
2022/03/16 01:24:45;;;;;;;;;;;;;;;;;;4997014;28;19914;-28
2022/03/16 01:27:12;;;;;;;;;;;;;;;;;;4996748;28;20351;-26
2022/03/16 01:29:38;;;;;;;;;;;;;;;;;;4996590;28;19945;-26
2022/03/16 01:32:04;;;;;;;;;;;;;;;;;;4996610;28;19924;-31
2022/03/16 01:34:32;;;;;;;;;;;;;;;;;;4996847;28;19914;-28
2022/03/16 01:36:58;;;;;;;;;;;;;;;;;;4996208;28;20273;-28
2022/03/16 01:39:24;;;;;;;;;;;;;;;;;;4996812;28;20272;-27
2022/03/16 01:41:50;;;;;;;;;;;;;;;;;;4996377;28;19914;-31
2022/03/16 01:44:17;;;;;;;;;;;;;;;;;;4996693;28;19914;-28
2022/03/16 01:46:44;;;;;;;;;;;;;;;;;;4996310;28;20317;-31
2022/03/16 01:49:11;;;;;;;;;;;;;;;;;;4996588;28;19914;-28
2022/03/16 01:51:37;;;;;;;;;;;;;;;;;;4996191;28;19914;-31
2022/03/16 01:54:05;;;;;;;;;;;;;;;;;;4996108;28;19971;-25
2022/03/16 01:56:31;;;;;;;;;;;;;;;;;;4996343;28;20341;-34
2022/03/16 01:58:57;;;;;;;;;;;;;;;;;;4996187;28;20000;-27
2022/03/16 02:01:23;;;;;;;;;;;;;;;;;;4996092;28;20000;-25
2022/03/16 02:03:49;;;;;;;;;;;;;;;;;;4996018;28;19940;-27
2022/03/16 02:06:17;;;;;;;;;;;;;;;;;;4995971;28;19967;-29
2022/03/16 02:08:43;;;;;;;;;;;;;;;;;;4996284;28;20230;-29
2022/03/16 02:11:09;;;;;;;;;;;;;;;;;;4995948;28;19949;-26
2022/03/16 02:13:36;;;;;;;;;;;;;;;;;;4978745;28;19921;-28
2022/03/16 02:16:02;;;;;;;;;;;;;;;;;;4996027;28;20312;-28
2022/03/16 02:18:28;;;;;;;;;;;;;;;;;;4995939;28;19914;-30
2022/03/16 02:20:54;;;;;;;;;;;;;;;;;;4996100;28;20252;-28
2022/03/16 02:23:23;;;;;;;;;;;;;;;;;;4995775;28;19925;-28
2022/03/16 02:25:50;;;;;;;;;;;;;;;;;;4996262;28;20349;-31
2022/03/16 02:28:16;;;;;;;;;;;;;;;;;;4995723;28;20349;-31
2022/03/16 02:30:43;;;;;;;;;;;;;;;;;;4995638;28;19926;-29
2022/03/16 02:33:09;;;;;;;;;;;;;;;;;;4995684;28;19909;-25
2022/03/16 02:35:35;;;;;;;;;;;;;;;;;;4995254;28;19917;-27
2022/03/16 02:38:02;;;;;;;;;;;;;;;;;;4995487;28;19925;-28
2022/03/16 02:40:29;;;;;;;;;;;;;;;;;;4995495;28;20009;-30
2022/03/16 02:42:56;;;;;;;;;;;;;;;;;;4995436;28;20356;-30
2022/03/16 02:45:22;;;;;;;;;;;;;;;;;;4995750;28;19918;-26
2022/03/16 02:47:48;;;;;;;;;;;;;;;;;;4995465;28;19917;-30
2022/03/16 02:50:17;;;;;;;;;;;;;;;;;;4995688;28;19926;-28
2022/03/16 02:52:43;;;;;;;;;;;;;;;;;;4995287;28;19914;-28
2022/03/16 02:55:09;;;;;;;;;;;;;;;;;;4995575;28;19913;-31
2022/03/16 02:57:37;;;;;;;;;;;;;;;;;;4995405;28;19980;-28
2022/03/16 03:00:03;;;;;;;;;;;;;;;;;;4995617;28;19945;-28
2022/03/16 03:02:30;;;;;;;;;;;;;;;;;;4995259;28;20257;-29
2022/03/16 03:04:56;;;;;;;;;;;;;;;;;;4995531;28;19914;-26
2022/03/16 03:07:23;;;;;;;;;;;;;;;;;;4995354;28;19909;-30
2022/03/16 03:09:51;;;;;;;;;;;;;;;;;;4995280;28;19914;-32
2022/03/16 03:12:17;;;;;;;;;;;;;;;;;;4995168;28;19957;-33
2022/03/16 03:14:43;;;;;;;;;;;;;;;;;;4995137;28;19917;-31
2022/03/16 03:17:12;;;;;;;;;;;;;;;;;;4995758;28;19970;-31
2022/03/16 03:19:38;;;;;;;;;;;;;;;;;;4980850;28;20361;-29
2022/03/16 03:22:05;;;;;;;;;;;;;;;;;;4999327;28;20245;-31
2022/03/16 03:24:32;;;;;;;;;;;;;;;;;;4999068;28;20253;-32
2022/03/16 03:26:58;;;;;;;;;;;;;;;;;;4998952;28;19917;-31
2022/03/16 03:29:26;;;;;;;;;;;;;;;;;;4998980;28;19917;-25
2022/03/16 03:31:52;;;;;;;;;;;;;;;;;;4999099;28;19933;-33
2022/03/16 03:34:18;;;;;;;;;;;;;;;;;;4998831;28;19914;-28
2022/03/16 03:36:45;;;;;;;;;;;;;;;;;;4998595;28;19926;-28
2022/03/16 03:39:11;;;;;;;;;;;;;;;;;;4998733;28;19906;-28
2022/03/16 03:41:38;;;;;;;;;;;;;;;;;;4998952;28;19921;-29
2022/03/16 03:44:04;;;;;;;;;;;;;;;;;;4998689;28;19928;-24
2022/03/16 03:46:30;;;;;;;;;;;;;;;;;;4998948;28;19914;-30
2022/03/16 03:48:56;;;;;;;;;;;;;;;;;;4998610;28;20242;-27
2022/03/16 03:51:22;;;;;;;;;;;;;;;;;;4998479;28;19910;-32
2022/03/16 03:53:50;;;;;;;;;;;;;;;;;;4998474;28;19937;-28
2022/03/16 03:56:18;;;;;;;;;;;;;;;;;;4998352;28;20021;-30
2022/03/16 03:58:45;;;;;;;;;;;;;;;;;;4998442;28;19916;-32
2022/03/16 04:01:11;;;;;;;;;;;;;;;;;;4998585;28;19921;-25
2022/03/16 04:03:37;;;;;;;;;;;;;;;;;;4998514;28;19920;-29
2022/03/16 04:06:03;;;;;;;;;;;;;;;;;;4998220;28;19953;-26
2022/03/16 04:08:29;;;;;;;;;;;;;;;;;;4998167;28;19941;-25
2022/03/16 04:10:55;;;;;;;;;;;;;;;;;;4998188;28;19914;-29
2022/03/16 04:13:23;;;;;;;;;;;;;;;;;;4998067;28;20056;-26
2022/03/16 04:15:49;;;;;;;;;;;;;;;;;;4998279;28;19979;-26
2022/03/16 04:18:15;;;;;;;;;;;;;;;;;;4998040;28;20000;-27
2022/03/16 04:20:41;;;;;;;;;;;;;;;;;;4997996;28;20225;-29
2022/03/16 04:23:07;;;;;;;;;;;;;;;;;;4980762;28;19910;-27
2022/03/16 04:25:33;;;;;;;;;;;;;;;;;;4998163;28;19920;-26
2022/03/16 04:28:00;;;;;;;;;;;;;;;;;;4997887;28;19914;-29
2022/03/16 04:30:27;;;;;;;;;;;;;;;;;;4979493;28;20312;-30
2022/03/16 04:32:55;;;;;;;;;;;;;;;;;;4997792;28;19914;-32
2022/03/16 04:35:21;;;;;;;;;;;;;;;;;;4997903;28;20206;-29
2022/03/16 04:37:48;;;;;;;;;;;;;;;;;;4997332;28;19928;-29
2022/03/16 04:40:14;;;;;;;;;;;;;;;;;;4997867;28;19945;-31
2022/03/16 04:42:41;;;;;;;;;;;;;;;;;;4997430;28;19914;-27
2022/03/16 04:45:07;;;;;;;;;;;;;;;;;;4997676;28;20341;-28
2022/03/16 04:47:33;;;;;;;;;;;;;;;;;;4980140;28;19924;-30
2022/03/16 04:50:01;;;;;;;;;;;;;;;;;;4997402;28;19910;-28
2022/03/16 04:52:27;;;;;;;;;;;;;;;;;;4980028;28;20349;-25
2022/03/16 04:54:54;;;;;;;;;;;;;;;;;;4979970;28;20008;-28
2022/03/16 04:57:21;;;;;;;;;;;;;;;;;;4997414;28;19969;-28
2022/03/16 04:59:47;;;;;;;;;;;;;;;;;;4996954;28;20264;-27
2022/03/16 05:02:13;;;;;;;;;;;;;;;;;;4997008;28;19964;-25
2022/03/16 05:04:39;;;;;;;;;;;;;;;;;;4996948;28;19945;-29
2022/03/16 05:07:06;;;;;;;;;;;;;;;;;;4979682;28;19914;-28
2022/03/16 05:09:32;;;;;;;;;;;;;;;;;;4996996;28;19914;-31
2022/03/16 05:11:58;;;;;;;;;;;;;;;;;;4996779;28;19960;-27
2022/03/16 05:14:25;;;;;;;;;;;;;;;;;;4979303;28;19914;-33
2022/03/16 05:16:53;;;;;;;;;;;;;;;;;;4996905;28;19920;-32
2022/03/16 05:19:19;;;;;;;;;;;;;;;;;;4996480;28;19949;-28
2022/03/16 05:21:47;;;;;;;;;;;;;;;;;;4996230;28;19921;-31
2022/03/16 05:24:13;;;;;;;;;;;;;;;;;;4979334;28;20013;-27
2022/03/16 05:26:39;;;;;;;;;;;;;;;;;;4996335;28;19990;-29
2022/03/16 05:29:05;;;;;;;;;;;;;;;;;;4996224;28;20386;-28
2022/03/16 05:31:31;;;;;;;;;;;;;;;;;;4996421;28;19981;-29
2022/03/16 05:33:58;;;;;;;;;;;;;;;;;;4978934;28;20009;-32
2022/03/16 05:36:24;;;;;;;;;;;;;;;;;;4995595;28;19922;-27
2022/03/16 05:38:50;;;;;;;;;;;;;;;;;;4996340;28;19917;-29
2022/03/16 05:41:17;;;;;;;;;;;;;;;;;;4995718;28;20415;-35
2022/03/16 05:43:43;;;;;;;;;;;;;;;;;;4995579;28;19981;-31
2022/03/16 05:46:11;;;;;;;;;;;;;;;;;;4996073;28;19914;-29
2022/03/16 05:48:37;;;;;;;;;;;;;;;;;;4995766;28;19946;-31
2022/03/16 05:51:03;;;;;;;;;;;;;;;;;;4995512;28;19914;-32
2022/03/16 05:53:31;;;;;;;;;;;;;;;;;;4995700;28;19946;-29
2022/03/16 05:55:57;;;;;;;;;;;;;;;;;;4995815;28;19992;-35
2022/03/16 05:58:24;;;;;;;;;;;;;;;;;;4995580;28;19914;-28
2022/03/16 06:00:50;;;;;;;;;;;;;;;;;;4995681;28;19910;-27
2022/03/16 06:03:16;;;;;;;;;;;;;;;;;;4995434;28;19918;-30
2022/03/16 06:05:44;;;;;;;;;;;;;;;;;;4995664;28;19914;-28
2022/03/16 06:08:10;;;;;;;;;;;;;;;;;;4995627;28;19918;-33
2022/03/16 06:10:39;;;;;;;;;;;;;;;;;;4995075;28;19913;-31
2022/03/16 06:13:08;;;;;;;;;;;;;;;;;;4995149;28;19913;-27
2022/03/16 06:15:37;;;;;;;;;;;;;;;;;;4995220;28;19918;-31
2022/03/16 06:18:03;;;;;;;;;;;;;;;;;;4995396;28;19913;-30
2022/03/16 06:20:30;;;;;;;;;;;;;;;;;;4995525;28;19922;-29
2022/03/16 06:25:53;;;;;;;;;;;;;;;;;;4995251;28;19981;-28
2022/03/16 06:28:20;;;;;;;;;;;;;;;;;;4995195;28;19925;-30
2022/03/16 06:30:47;;;;;;;;;;;;;;;;;;4995112;28;20296;-32
2022/03/16 06:33:13;;;;;;;;;;;;;;;;;;4995233;28;19910;-28
2022/03/16 06:35:41;;;;;;;;;;;;;;;;;;4995254;28;19918;-30
2022/03/16 06:49:25;;;;;;;;;;;;;;;;;;4994612;28;19940;-26
2022/03/16 07:02:57;;;;;;;;;;;;;;;;;;5013930;28;19936;-26
2022/03/16 07:19:38;;;;;;;;;;;;;;;;;;5014112;28;20352;-26
2022/03/16 07:22:07;;;;;;;;;;;;;;;;;;5013571;28;20296;-26
2022/03/16 07:24:33;;;;;;;;;;;;;;;;;;5013638;28;19913;-26
2022/03/16 07:27:03;;;;;;;;;;;;;;;;;;4995902;28;19921;-25
2022/03/16 07:29:29;;;;;;;;;;;;;;;;;;5013527;28;19909;-25
2022/03/16 07:31:55;;;;;;;;;;;;;;;;;;5013558;28;19952;-25
2022/03/16 07:34:26;;;;;;;;;;;;;;;;;;5013472;28;19940;-25
2022/03/16 07:36:52;;;;;;;;;;;;;;;;;;4996451;28;19925;-25
2022/03/16 07:39:18;;;;;;;;;;;;;;;;;;5014352;28;19914;-26
2022/03/16 07:41:45;;;;;;;;;;;;;;;;;;5013838;28;19913;-25
2022/03/16 07:44:11;;;;;;;;;;;;;;;;;;5013806;28;19920;-26
2022/03/16 07:46:39;;;;;;;;;;;;;;;;;;4996882;28;19913;-25
2022/03/16 07:49:05;;;;;;;;;;;;;;;;;;5014389;28;19967;-26
2022/03/16 07:51:32;;;;;;;;;;;;;;;;;;5013911;28;20374;-26
2022/03/16 07:54:02;;;;;;;;;;;;;;;;;;5013072;28;20272;-26
2022/03/16 07:59:14;;;;;;;;;;;;;;;;;;5013720;28;19923;-27
2022/03/16 08:01:41;;;;;;;;;;;;;;;;;;5013929;28;20267;-27
2022/03/16 08:04:07;;;;;;;;;;;;;;;;;;5013984;28;20248;-27
2022/03/16 08:06:33;;;;;;;;;;;;;;;;;;5016757;28;19917;-27
2022/03/16 08:09:00;;;;;;;;;;;;;;;;;;5017179;28;19917;-26
2022/03/16 08:34:06;;;;;;;;;;;;;;;;;;4997491;28;20252;-25
2022/03/16 08:36:33;;;;;;;;;;;;;;;;;;4997069;28;19973;-25
2022/03/16 08:39:02;;;;;;;;;;;;;;;;;;4978745;28;19914;-25
2022/03/16 08:41:32;;;;;;;;;;;;;;;;;;4977460;28;19914;-25
2022/03/16 08:44:06;;;;;;;;;;;;;;;;;;4977437;28;19914;-25
2022/03/16 08:46:32;;;;;;;;;;;;;;;;;;4960521;28;20000;-25
2022/03/16 08:49:03;;;;;;;;;;;;;;;;;;4977412;28;19950;-25
2022/03/16 08:51:53;;;;;;;;;;;;;;;;;;4959663;28;19926;-25
2022/03/16 08:57:10;;;;;;;;;;;;;;;;;;4977195;28;20029;-25
2022/03/16 08:59:37;;;;;;;;;;;;;;;;;;4977192;28;19925;-25
2022/03/16 09:02:04;;;;;;;;;;;;;;;;;;4976949;28;19914;-25
2022/03/16 09:04:30;;;;;;;;;;;;;;;;;;4976834;28;19925;-25
2022/03/16 09:18:21;;;;;;;;;;;;;;;;;;5358683;23;19926;-24
2022/03/16 09:29:33;;;;;;;;;;;;;;;;;;4977173;28;19964;-26
2022/03/16 09:34:51;;;;;;;;;;;;;;;;;;4973825;28;19913;-26
2022/03/16 09:37:19;;;;;;;;;;;;;;;;;;4976442;28;19918;-26
2022/03/16 09:42:41;;;;;;;;;;;;;;;;;;4976051;28;19945;-25
2022/03/16 09:53:34;;;;;;;;;;;;;;;;;;5274125;23;19947;-23
2022/03/16 10:01:44;;;;;;;;;;;;;;;;;;5014993;28;19924;-22
2022/03/16 10:04:10;;;;;;;;;;;;;;;;;;4995031;28;19913;-22
2022/03/16 10:06:36;;;;;;;;;;;;;;;;;;4994690;28;19988;-22
2022/03/16 10:14:32;;;;;;;;;;;;;;;;;;4994822;28;20013;-21
2022/03/16 10:19:43;;;;;;;;;;;;;;;;;;4994674;28;19921;-22
2022/03/16 10:22:09;;;;;;;;;;;;;;;;;;4994722;28;20308;-22
2022/03/16 10:24:35;;;;;;;;;;;;;;;;;;4977698;28;19976;-22
2022/03/16 10:27:01;;;;;;;;;;;;;;;;;;4995300;28;19917;-23
2022/03/16 10:29:31;;;;;;;;;;;;;;;;;;4995261;28;19917;-23
2022/03/16 10:32:10;;;;;;;;;;;;;;;;;;4995277;28;19914;-23
2022/03/16 10:34:38;;;;;;;;;;;;;;;;;;4995340;28;19914;-23
2022/03/16 10:37:04;;;;;;;;;;;;;;;;;;4995184;28;19925;-23
2022/03/16 10:39:30;;;;;;;;;;;;;;;;;;4995117;28;20466;-23
2022/03/16 10:47:26;;;;;;;;;;;;;;;;;;4995477;28;20029;-23
2022/03/16 10:49:53;;;;;;;;;;;;;;;;;;4977892;28;19957;-23
2022/03/16 10:52:19;;;;;;;;;;;;;;;;;;4994933;28;19913;-23
2022/03/16 10:54:45;;;;;;;;;;;;;;;;;;4994555;28;19925;-22
2022/03/16 10:57:13;;;;;;;;;;;;;;;;;;4994961;28;19917;-22
2022/03/16 10:59:43;;;;;;;;;;;;;;;;;;4995612;28;20005;-23
2022/03/16 11:02:12;;;;;;;;;;;;;;;;;;4994922;28;19936;-23
2022/03/16 11:04:41;;;;;;;;;;;;;;;;;;4994873;28;19921;-23
2022/03/16 11:07:08;;;;;;;;;;;;;;;;;;4994789;28;20234;-23
2022/03/16 11:09:34;;;;;;;;;;;;;;;;;;4994652;28;20012;-23
2022/03/16 11:14:47;;;;;;;;;;;;;;;;;;4995427;28;20340;-22
2022/03/16 11:17:14;;;;;;;;;;;;;;;;;;4994879;28;20225;-22
2022/03/16 11:19:44;;;;;;;;;;;;;;;;;;4994995;28;19910;-22
2022/03/16 11:22:11;;;;;;;;;;;;;;;;;;4977787;28;20063;-22
2022/03/16 11:24:39;;;;;;;;;;;;;;;;;;4977549;28;19913;-22
2022/03/16 11:27:09;;;;;;;;;;;;;;;;;;4995074;28;20183;-22
2022/03/16 11:29:38;;;;;;;;;;;;;;;;;;4994509;28;19910;-22
2022/03/16 11:32:05;;;;;;;;;;;;;;;;;;4994437;28;20202;-22
2022/03/16 11:34:33;;;;;;;;;;;;;;;;;;4994386;28;19914;-23
2022/03/16 11:36:59;;;;;;;;;;;;;;;;;;4995032;28;19924;-21
2022/03/16 11:39:25;;;;;;;;;;;;;;;;;;4995391;28;20256;-22
2022/03/16 11:41:51;;;;;;;;;;;;;;;;;;4998517;28;19964;-22
2022/03/16 11:44:19;;;;;;;;;;;;;;;;;;4997945;28;19998;-22
2022/03/16 11:46:46;;;;;;;;;;;;;;;;;;4998313;28;19956;-22
2022/03/16 11:49:12;;;;;;;;;;;;;;;;;;4997996;28;20004;-21
2022/03/16 11:51:43;;;;;;;;;;;;;;;;;;4998624;28;20000;-23
2022/03/16 11:54:09;;;;;;;;;;;;;;;;;;4997547;28;20363;-22
2022/03/16 11:56:36;;;;;;;;;;;;;;;;;;4997653;28;19918;-23
2022/03/16 11:59:04;;;;;;;;;;;;;;;;;;4997488;28;19913;-23
2022/03/16 12:01:34;;;;;;;;;;;;;;;;;;4996725;28;21704;-23
2022/03/16 12:04:08;;;;;;;;;;;;;;;;;;4997657;28;19938;-23
2022/03/16 12:06:35;;;;;;;;;;;;;;;;;;4997283;28;19921;-22
2022/03/16 12:09:02;;;;;;;;;;;;;;;;;;4997642;28;20293;-22
2022/03/16 12:14:16;;;;;;;;;;;;;;;;;;4997209;28;19924;-22
2022/03/16 12:16:44;;;;;;;;;;;;;;;;;;4996786;28;19924;-22
2022/03/16 12:19:10;;;;;;;;;;;;;;;;;;4997359;28;19910;-22
2022/03/16 12:21:40;;;;;;;;;;;;;;;;;;4996793;28;19913;-23
2022/03/16 12:29:42;;;;;;;;;;;;;;;;;;4997703;28;20316;-23
2022/03/16 12:32:09;;;;;;;;;;;;;;;;;;4997094;28;19941;-24
2022/03/16 12:37:26;;;;;;;;;;;;;;;;;;4997284;28;20285;-23
2022/03/16 12:48:22;;;;;;;;;;;;;;;;;;5348689;23;19937;-25
2022/03/16 12:50:51;;;;;;;;;;;;;;;;;;4994931;28;19980;-25
2022/03/16 12:53:19;;;;;;;;;;;;;;;;;;4995892;28;20339;-26
2022/03/16 12:55:51;;;;;;;;;;;;;;;;;;4995736;28;20213;-25
2022/03/16 12:58:17;;;;;;;;;;;;;;;;;;4978610;28;19917;-26
2022/03/16 13:00:43;;;;;;;;;;;;;;;;;;4995750;28;19914;-26
2022/03/16 13:03:11;;;;;;;;;;;;;;;;;;4995712;28;19917;-26
2022/03/16 13:05:38;;;;;;;;;;;;;;;;;;4995660;28;20005;-29
2022/03/16 13:11:30;;;;;;;;;;;;;;;;;;4995702;28;19920;-25
2022/03/16 13:16:45;;;;;;;;;;;;;;;;;;4995726;28;19984;-25
2022/03/16 13:30:41;;;;;;;;;;;;;;;;;;4995435;28;19933;-25
2022/03/16 13:33:15;;;;;;;;;;;;;;;;;;4995354;28;19917;-26
2022/03/16 13:35:41;;;;;;;;;;;;;;;;;;4978166;28;19918;-25
2022/03/16 13:41:02;;;;;;;;;;;;;;;;;;4995057;28;19964;-26
2022/03/16 13:43:32;;;;;;;;;;;;;;;;;;4994828;28;19920;-25
2022/03/16 13:45:59;;;;;;;;;;;;;;;;;;4995115;28;19913;-26
2022/03/16 13:48:27;;;;;;;;;;;;;;;;;;4798588;28;5685983;-26
2022/03/16 13:50:57;;;;;;;;;;;;;;;;;;4995722;28;19932;-25
2022/03/16 13:53:27;;;;;;;;;;;;;;;;;;4995360;28;19914;-26
2022/03/16 13:56:00;;;;;;;;;;;;;;;;;;4995484;28;19941;-25
2022/03/16 13:58:26;;;;;;;;;;;;;;;;;;4995226;28;20327;-26
2022/03/16 14:00:52;;;;;;;;;;;;;;;;;;4978154;28;20316;-25
2022/03/16 14:03:19;;;;;;;;;;;;;;;;;;4977949;28;19926;-26
2022/03/16 14:05:45;;;;;;;;;;;;;;;;;;4996269;28;20230;-25
2022/03/16 14:08:11;;;;;;;;;;;;;;;;;;4979121;28;19909;-25
2022/03/16 14:10:42;;;;;;;;;;;;;;;;;;4977897;28;19928;-26
2022/03/16 14:13:09;;;;;;;;;;;;;;;;;;4996109;28;19920;-25
2022/03/16 14:15:35;;;;;;;;;;;;;;;;;;4995494;28;19918;-25
2022/03/16 14:18:02;;;;;;;;;;;;;;;;;;4995450;28;19914;-25
2022/03/16 14:20:28;;;;;;;;;;;;;;;;;;4995236;28;19953;-25
2022/03/16 14:22:54;;;;;;;;;;;;;;;;;;4995118;28;19972;-25
2022/03/16 14:25:20;;;;;;;;;;;;;;;;;;4995124;28;19960;-25
2022/03/16 14:27:51;;;;;;;;;;;;;;;;;;4995367;28;19941;-25
2022/03/16 14:30:22;;;;;;;;;;;;;;;;;;4995097;28;19991;-25
2022/03/16 14:32:49;;;;;;;;;;;;;;;;;;4994874;28;19918;-25
2022/03/16 14:35:15;;;;;;;;;;;;;;;;;;4994948;28;19917;-25
2022/03/16 14:37:44;;;;;;;;;;;;;;;;;;4996193;28;19910;-25
2022/03/16 14:40:11;;;;;;;;;;;;;;;;;;4995247;28;19913;-25
2022/03/16 14:42:38;;;;;;;;;;;;;;;;;;4995484;28;19920;-25
2022/03/16 14:45:05;;;;;;;;;;;;;;;;;;4995170;28;20252;-25
2022/03/16 14:47:32;;;;;;;;;;;;;;;;;;4994846;28;19926;-25
2022/03/16 14:50:00;;;;;;;;;;;;;;;;;;4995349;28;19921;-25
2022/03/16 14:52:27;;;;;;;;;;;;;;;;;;4995066;28;19968;-25
2022/03/16 15:00:38;;;;;;;;;;;;;;;;;;4995273;28;20374;-25
2022/03/16 15:03:04;;;;;;;;;;;;;;;;;;4995011;28;20023;-25
2022/03/16 15:05:31;;;;;;;;;;;;;;;;;;4994935;28;20001;-25
2022/03/16 15:07:57;;;;;;;;;;;;;;;;;;4994681;28;20360;-25
2022/03/16 15:10:23;;;;;;;;;;;;;;;;;;4994848;28;20244;-25
2022/03/16 15:12:50;;;;;;;;;;;;;;;;;;4994884;28;19945;-25
2022/03/16 15:15:25;;;;;;;;;;;;;;;;;;4996897;28;19920;-25
2022/03/16 15:17:57;;;;;;;;;;;;;;;;;;4998529;28;19925;-25
2022/03/16 15:20:23;;;;;;;;;;;;;;;;;;4998607;28;19914;-25
2022/03/16 15:25:40;;;;;;;;;;;;;;;;;;4998799;28;20412;-26
2022/03/16 15:28:07;;;;;;;;;;;;;;;;;;4998331;28;20000;-26
2022/03/16 15:30:33;;;;;;;;;;;;;;;;;;4998399;28;19914;-27
2022/03/16 15:33:00;;;;;;;;;;;;;;;;;;4998460;28;19933;-27
2022/03/16 15:35:26;;;;;;;;;;;;;;;;;;4998144;28;19987;-27
2022/03/16 15:37:55;;;;;;;;;;;;;;;;;;4980943;28;19933;-27
2022/03/16 15:43:06;;;;;;;;;;;;;;;;;;4998399;28;19983;-27
2022/03/16 15:45:32;;;;;;;;;;;;;;;;;;4997994;28;19914;-27
2022/03/16 15:47:58;;;;;;;;;;;;;;;;;;4997778;28;19921;-26
2022/03/16 15:50:24;;;;;;;;;;;;;;;;;;4980408;28;19958;-28
2022/03/16 15:52:51;;;;;;;;;;;;;;;;;;4997869;28;19955;-26
2022/03/16 16:03:51;;;;;;;;;;;;;;;;;;4997963;28;20027;-26
2022/03/16 16:06:29;;;;;;;;;;;;;;;;;;4997669;28;19941;-25
2022/03/16 16:08:59;;;;;;;;;;;;;;;;;;4997461;28;19917;-25
2022/03/16 16:11:25;;;;;;;;;;;;;;;;;;4997164;28;19921;-25
2022/03/16 16:13:52;;;;;;;;;;;;;;;;;;4979562;28;19910;-25
2022/03/16 16:16:18;;;;;;;;;;;;;;;;;;4979673;28;19939;-25
2022/03/16 16:18:44;;;;;;;;;;;;;;;;;;4997166;28;19917;-25
2022/03/16 16:21:10;;;;;;;;;;;;;;;;;;4997280;28;19982;-25
2022/03/16 16:23:36;;;;;;;;;;;;;;;;;;4997046;28;19909;-25
2022/03/16 16:26:03;;;;;;;;;;;;;;;;;;4997369;28;19968;-25
2022/03/16 16:28:30;;;;;;;;;;;;;;;;;;4996847;28;19925;-25
2022/03/16 16:30:56;;;;;;;;;;;;;;;;;;4979571;28;20352;-25
2022/03/16 16:33:22;;;;;;;;;;;;;;;;;;4996792;28;20286;-25
2022/03/16 16:35:48;;;;;;;;;;;;;;;;;;4996544;28;19968;-25
2022/03/16 16:46:49;;;;;;;;;;;;;;;;;;4997352;28;20320;-25
2022/03/16 16:49:16;;;;;;;;;;;;;;;;;;4997147;28;19925;-25
2022/03/16 16:51:43;;;;;;;;;;;;;;;;;;4997207;28;19914;-25
2022/03/16 16:54:10;;;;;;;;;;;;;;;;;;4980032;28;19969;-25
2022/03/16 16:56:36;;;;;;;;;;;;;;;;;;4997217;28;20268;-23
2022/03/16 16:59:02;;;;;;;;;;;;;;;;;;4996809;28;19952;-23
2022/03/16 17:01:29;;;;;;;;;;;;;;;;;;4997219;28;19909;-23
2022/03/16 17:03:57;;;;;;;;;;;;;;;;;;4996686;28;19913;-23
2022/03/16 17:06:23;;;;;;;;;;;;;;;;;;4996724;28;19983;-23
2022/03/16 17:08:49;;;;;;;;;;;;;;;;;;4996908;28;20225;-25
2022/03/16 17:11:15;;;;;;;;;;;;;;;;;;4996628;28;20262;-25
2022/03/16 17:13:41;;;;;;;;;;;;;;;;;;4996833;28;20356;-24
2022/03/16 17:16:07;;;;;;;;;;;;;;;;;;4996323;28;19922;-24
2022/03/16 17:18:36;;;;;;;;;;;;;;;;;;4996491;28;19910;-36
2022/03/16 17:21:03;;;;;;;;;;;;;;;;;;4996590;28;19980;-24
2022/03/16 17:23:29;;;;;;;;;;;;;;;;;;4996566;28;20019;-24
2022/03/16 17:25:56;;;;;;;;;;;;;;;;;;4996467;28;20256;-24
2022/03/16 17:28:23;;;;;;;;;;;;;;;;;;4979456;28;20280;-24
2022/03/16 17:30:50;;;;;;;;;;;;;;;;;;4996383;28;19910;-24
2022/03/16 17:33:16;;;;;;;;;;;;;;;;;;4996288;28;19945;-24
2022/03/16 17:35:43;;;;;;;;;;;;;;;;;;4995742;28;19918;-25
2022/03/16 17:38:09;;;;;;;;;;;;;;;;;;4995385;28;19964;-25
2022/03/16 17:40:36;;;;;;;;;;;;;;;;;;4995930;28;19914;-24
2022/03/16 17:45:46;;;;;;;;;;;;;;;;;;4996138;28;19964;-24
2022/03/16 17:48:12;;;;;;;;;;;;;;;;;;4995467;28;19981;-24
2022/03/16 17:50:42;;;;;;;;;;;;;;;;;;4978412;28;19925;-24
2022/03/16 17:53:09;;;;;;;;;;;;;;;;;;4978780;28;20363;-24
2022/03/16 17:58:22;;;;;;;;;;;;;;;;;;4996093;28;19960;-24
2022/03/16 18:00:48;;;;;;;;;;;;;;;;;;4995854;28;20001;-24
2022/03/16 18:03:15;;;;;;;;;;;;;;;;;;4996286;28;20232;-24
2022/03/16 18:05:41;;;;;;;;;;;;;;;;;;4978268;28;19969;-24
2022/03/16 18:08:10;;;;;;;;;;;;;;;;;;4977894;28;19914;-25
2022/03/16 18:13:22;;;;;;;;;;;;;;;;;;4995427;28;19936;-24
2022/03/16 18:15:48;;;;;;;;;;;;;;;;;;4995283;28;20003;-25
2022/03/16 18:18:14;;;;;;;;;;;;;;;;;;4995072;28;19914;-25
2022/03/16 18:20:40;;;;;;;;;;;;;;;;;;4977889;28;19910;-25
2022/03/16 18:23:06;;;;;;;;;;;;;;;;;;4994981;28;19913;-25
2022/03/16 18:25:32;;;;;;;;;;;;;;;;;;4995166;28;19913;-25
2022/03/16 18:27:58;;;;;;;;;;;;;;;;;;4994692;28;19929;-25
2022/03/16 18:30:24;;;;;;;;;;;;;;;;;;4994941;28;20329;-25
2022/03/16 18:32:51;;;;;;;;;;;;;;;;;;4994781;28;20009;-25
2022/03/16 18:35:18;;;;;;;;;;;;;;;;;;4994492;28;19920;-24
2022/03/16 18:37:44;;;;;;;;;;;;;;;;;;4977575;28;19914;-25
2022/03/16 18:40:10;;;;;;;;;;;;;;;;;;4994733;28;20004;-25
2022/03/16 18:42:36;;;;;;;;;;;;;;;;;;4976923;28;19913;-25
2022/03/16 18:45:02;;;;;;;;;;;;;;;;;;4976891;28;19918;-24
2022/03/16 18:47:28;;;;;;;;;;;;;;;;;;4994055;28;20438;-25
2022/03/16 18:49:54;;;;;;;;;;;;;;;;;;4993322;28;20013;-25
2022/03/16 18:52:22;;;;;;;;;;;;;;;;;;4994298;28;20020;-26
2022/03/16 18:54:49;;;;;;;;;;;;;;;;;;4994551;28;19960;-23
2022/03/16 18:57:15;;;;;;;;;;;;;;;;;;4993805;28;19924;-24
2022/03/16 18:59:41;;;;;;;;;;;;;;;;;;4994251;28;19914;-25
2022/03/16 19:02:07;;;;;;;;;;;;;;;;;;4993993;28;19945;-24
2022/03/16 19:04:33;;;;;;;;;;;;;;;;;;4993987;28;19913;-24
2022/03/16 19:06:59;;;;;;;;;;;;;;;;;;4976475;28;19980;-24
2022/03/16 19:09:25;;;;;;;;;;;;;;;;;;4993843;28;20202;-24
2022/03/16 19:14:36;;;;;;;;;;;;;;;;;;4993810;28;19929;-24
2022/03/16 19:17:02;;;;;;;;;;;;;;;;;;4975921;28;19972;-24
2022/03/16 19:19:28;;;;;;;;;;;;;;;;;;4993233;28;19913;-24
2022/03/16 19:21:55;;;;;;;;;;;;;;;;;;4994110;28;19917;-24
2022/03/16 19:24:21;;;;;;;;;;;;;;;;;;4993828;28;20367;-24
2022/03/16 19:26:49;;;;;;;;;;;;;;;;;;4977169;28;19910;-24
2022/03/16 19:29:15;;;;;;;;;;;;;;;;;;4994209;28;20261;-24
2022/03/16 19:31:42;;;;;;;;;;;;;;;;;;4994287;28;20253;-24
2022/03/16 19:34:08;;;;;;;;;;;;;;;;;;4994335;28;19926;-24
2022/03/16 19:36:34;;;;;;;;;;;;;;;;;;4994367;28;20260;-24
2022/03/16 19:39:02;;;;;;;;;;;;;;;;;;4977050;28;19934;-24
2022/03/16 19:41:28;;;;;;;;;;;;;;;;;;4994579;28;19949;-24
2022/03/16 19:43:54;;;;;;;;;;;;;;;;;;4994326;28;19913;-24
2022/03/16 19:46:20;;;;;;;;;;;;;;;;;;4994184;28;19926;-24
2022/03/16 19:48:47;;;;;;;;;;;;;;;;;;4993972;28;19990;-24
2022/03/16 19:51:16;;;;;;;;;;;;;;;;;;4994394;28;19913;-24
2022/03/16 19:53:42;;;;;;;;;;;;;;;;;;4994527;28;19914;-24
2022/03/16 19:56:08;;;;;;;;;;;;;;;;;;4994540;28;20332;-24
2022/03/16 19:58:34;;;;;;;;;;;;;;;;;;4994321;28;19914;-24
2022/03/16 20:01:00;;;;;;;;;;;;;;;;;;4996268;28;19925;-24
2022/03/16 20:03:27;;;;;;;;;;;;;;;;;;4997840;28;19911;-24
2022/03/16 20:05:55;;;;;;;;;;;;;;;;;;4998136;28;19914;-23
2022/03/16 20:08:21;;;;;;;;;;;;;;;;;;4997621;28;20012;-24